createdAt,value
2019-06-25T00:00:59.231Z,9.50
2019-06-25T00:03:32.050Z,8.23
2019-06-25T00:06:03.613Z,11.30
2019-06-25T00:08:35.407Z,9.73
2019-06-25T00:11:07.893Z,9.77
2019-06-25T00:13:39.841Z,10.43
2019-06-25T00:16:11.653Z,9.47
2019-06-25T00:18:43.748Z,9.60
2019-06-25T00:21:15.482Z,10.50
2019-06-25T00:23:47.299Z,9.83
2019-06-25T00:26:19.358Z,9.47
2019-06-25T00:28:52.391Z,9.70
2019-06-25T00:31:23.760Z,9.33
2019-06-25T00:33:55.593Z,10.17
2019-06-25T00:36:28.139Z,10.00
2019-06-25T00:38:59.250Z,9.90
2019-06-25T00:41:31.768Z,12.03
2019-06-25T00:44:04.072Z,10.47
2019-06-25T00:46:36.421Z,10.10
2019-06-25T00:49:09.221Z,11.10
2019-06-25T00:51:41.340Z,9.37
2019-06-25T00:54:14.377Z,10.07
2019-06-25T00:56:45.426Z,10.20
2019-06-25T00:59:18.502Z,9.20
2019-06-25T01:01:53.186Z,9.10
2019-06-25T01:04:25.216Z,9.97
2019-06-25T01:06:57.097Z,10.10
2019-06-25T01:09:29.328Z,9.83
2019-06-25T01:12:00.664Z,9.23
2019-06-25T01:14:32.431Z,9.20
2019-06-25T01:17:03.863Z,9.90
2019-06-25T01:19:35.546Z,9.40
2019-06-25T01:22:06.610Z,9.10
2019-06-25T01:24:38.207Z,9.77
2019-06-25T01:27:11.263Z,10.07
2019-06-25T01:29:43.031Z,10.10
2019-06-25T01:32:15.858Z,9.70
2019-06-25T01:34:48.453Z,10.17
2019-06-25T01:37:19.601Z,9.73
2019-06-25T01:39:52.066Z,9.83
2019-06-25T01:42:24.554Z,8.90
2019-06-25T01:44:56.998Z,9.20
2019-06-25T01:47:29.021Z,9.47
2019-06-25T01:50:01.510Z,8.63
2019-06-25T01:52:33.920Z,8.70
2019-06-25T01:55:07.086Z,7.90
2019-06-25T01:57:39.006Z,9.30
2019-06-25T02:00:11.397Z,8.10
2019-06-25T02:02:43.979Z,8.50
2019-06-25T02:05:16.595Z,9.07
2019-06-25T02:07:48.103Z,9.70
2019-06-25T02:10:22.966Z,10.00
2019-06-25T02:12:55.390Z,9.63
2019-06-25T02:15:27.726Z,7.97
2019-06-25T02:18:00.783Z,8.27
2019-06-25T02:20:34.650Z,8.90
2019-06-25T02:23:07.429Z,8.40
2019-06-25T02:25:39.798Z,8.53
2019-06-25T02:28:11.810Z,7.63
2019-06-25T02:31:01.350Z,8.40
2019-06-25T02:33:17.866Z,7.97
2019-06-25T02:35:49.011Z,8.70
2019-06-25T02:38:22.309Z,9.00
2019-06-25T02:40:53.681Z,8.80
2019-06-25T02:43:25.746Z,9.30
2019-06-25T02:45:57.789Z,8.73
2019-06-25T02:48:29.354Z,9.63
2019-06-25T02:51:01.148Z,8.60
2019-06-25T02:53:32.980Z,8.70
2019-06-25T02:56:05.046Z,8.67
2019-06-25T02:58:37.961Z,9.27
2019-06-25T03:01:27.059Z,8.90
2019-06-25T03:03:44.304Z,9.40
2019-06-25T03:06:17.635Z,9.17
2019-06-25T03:08:48.926Z,9.40
2019-06-25T03:11:20.838Z,9.90
2019-06-25T03:13:52.560Z,8.90
2019-06-25T03:16:24.391Z,9.37
2019-06-25T03:18:56.013Z,9.20
2019-06-25T03:21:28.240Z,9.50
2019-06-25T03:23:59.694Z,9.10
2019-06-25T03:26:31.856Z,9.07
2019-06-25T03:29:04.479Z,9.50
2019-06-25T03:32:02.794Z,9.73
2019-06-25T03:34:10.118Z,9.07
2019-06-25T03:36:42.184Z,9.03
2019-06-25T03:39:13.974Z,9.10
2019-06-25T03:41:46.790Z,9.27
2019-06-25T03:44:18.129Z,9.13
2019-06-25T03:46:50.475Z,9.37
2019-06-25T03:49:22.263Z,8.87
2019-06-25T03:51:56.403Z,9.83
2019-06-25T03:54:29.408Z,9.47
2019-06-25T03:57:01.542Z,9.33
2019-06-25T03:59:33.332Z,9.53
2019-06-25T04:02:16.800Z,10.40
2019-06-25T04:04:38.974Z,10.23
2019-06-25T04:07:11.472Z,10.80
2019-06-25T04:09:44.386Z,9.87
2019-06-25T04:12:16.964Z,9.80
2019-06-25T04:14:49.293Z,10.60
2019-06-25T04:17:21.353Z,12.00
2019-06-25T04:19:52.671Z,11.57
2019-06-25T04:22:24.184Z,10.77
2019-06-25T04:24:56.806Z,10.57
2019-06-25T04:27:29.095Z,10.20
2019-06-25T04:30:00.757Z,9.57
2019-06-25T04:32:34.073Z,10.40
2019-06-25T04:35:05.627Z,10.20
2019-06-25T04:37:37.098Z,9.57
2019-06-25T04:40:09.845Z,10.00
2019-06-25T04:42:41.754Z,10.87
2019-06-25T04:45:13.796Z,9.40
2019-06-25T04:47:45.830Z,10.80
2019-06-25T04:50:20.756Z,8.93
2019-06-25T04:52:52.855Z,12.00
2019-06-25T04:55:24.130Z,10.30
2019-06-25T04:57:56.521Z,10.97
2019-06-25T05:00:29.018Z,8.90
2019-06-25T05:03:00.674Z,9.80
2019-06-25T05:05:32.906Z,10.27
2019-06-25T05:08:05.745Z,10.27
2019-06-25T05:10:37.280Z,14.93
2019-06-25T05:13:09.360Z,11.90
2019-06-25T05:15:42.474Z,11.00
2019-06-25T05:18:15.557Z,12.27
2019-06-25T05:20:47.875Z,11.57
2019-06-25T05:23:20.422Z,13.10
2019-06-25T05:25:53.250Z,13.87
2019-06-25T05:28:25.319Z,15.03
2019-06-25T05:30:57.961Z,16.70
2019-06-25T05:33:29.699Z,12.30
2019-06-25T05:36:09.915Z,12.53
2019-06-25T05:38:42.294Z,14.20
2019-06-25T05:41:15.156Z,14.80
2019-06-25T05:43:47.181Z,14.03
2019-06-25T05:46:19.124Z,12.97
2019-06-25T05:48:50.378Z,14.10
2019-06-25T05:51:22.644Z,13.73
2019-06-25T05:53:55.435Z,14.83
2019-06-25T05:56:26.742Z,14.77
2019-06-25T05:58:58.570Z,14.73
2019-06-25T06:01:29.873Z,14.67
2019-06-25T06:04:02.068Z,15.10
2019-06-25T06:06:33.727Z,15.40
2019-06-25T06:09:07.413Z,14.77
2019-06-25T06:11:39.389Z,13.27
2019-06-25T06:14:11.741Z,14.80
2019-06-25T06:16:43.425Z,15.10
2019-06-25T06:19:15.643Z,15.37
2019-06-25T06:21:47.207Z,15.03
2019-06-25T06:24:21.943Z,15.23
2019-06-25T06:26:53.873Z,14.40
2019-06-25T06:29:25.738Z,15.63
2019-06-25T06:31:58.957Z,15.33
2019-06-25T06:34:31.037Z,15.27
2019-06-25T06:37:03.505Z,15.43
2019-06-25T06:39:36.353Z,18.23
2019-06-25T06:42:08.519Z,15.30
2019-06-25T06:44:40.997Z,20.23
2019-06-25T06:47:13.499Z,15.27
2019-06-25T06:49:45.491Z,16.23
2019-06-25T06:52:16.540Z,15.20
2019-06-25T06:54:48.260Z,15.33
2019-06-25T06:57:20.912Z,14.90
2019-06-25T06:59:54.065Z,14.73
2019-06-25T07:02:25.565Z,14.50
2019-06-25T07:04:58.127Z,14.93
2019-06-25T07:07:30.156Z,13.97
2019-06-25T07:10:03.034Z,13.40
2019-06-25T07:12:35.131Z,15.83
2019-06-25T07:15:07.547Z,13.70
2019-06-25T07:17:39.672Z,16.40
2019-06-25T07:20:12.076Z,14.67
2019-06-25T07:22:44.385Z,16.30
2019-06-25T07:25:16.642Z,13.07
2019-06-25T07:27:48.557Z,15.20
2019-06-25T07:30:22.142Z,16.77
2019-06-25T07:32:55.483Z,15.77
2019-06-25T07:35:28.272Z,21.70
2019-06-25T07:37:59.584Z,17.50
2019-06-25T07:40:32.002Z,17.60
2019-06-25T07:43:04.276Z,18.10
2019-06-25T07:45:37.363Z,16.87
2019-06-25T07:48:09.797Z,17.20
2019-06-25T07:50:41.704Z,16.63
2019-06-25T07:53:13.470Z,17.80
2019-06-25T07:55:45.916Z,15.80
2019-06-25T07:58:18.178Z,18.13
2019-06-25T08:00:50.733Z,17.70
2019-06-25T08:03:22.819Z,16.87
2019-06-25T08:05:55.707Z,17.00
2019-06-25T08:08:27.452Z,19.50
2019-06-25T08:11:00.034Z,18.33
2019-06-25T08:13:32.352Z,18.17
2019-06-25T08:16:04.731Z,18.60
2019-06-25T08:18:36.506Z,17.40
2019-06-25T08:21:08.847Z,18.73
2019-06-25T08:23:40.861Z,17.83
2019-06-25T08:26:12.493Z,18.13
2019-06-25T08:28:45.000Z,19.60
2019-06-25T08:31:16.996Z,20.53
2019-06-25T08:33:49.408Z,20.40
2019-06-25T08:36:21.695Z,21.00
2019-06-25T08:38:54.227Z,20.87
2019-06-25T08:41:27.599Z,18.23
2019-06-25T08:43:59.943Z,19.67
2019-06-25T08:46:32.137Z,20.07
2019-06-25T08:49:04.061Z,21.40
2019-06-25T08:51:35.801Z,22.60
2019-06-25T08:54:07.454Z,19.97
2019-06-25T08:56:39.270Z,20.33
2019-06-25T08:59:11.090Z,27.30
2019-06-25T09:01:43.908Z,19.60
2019-06-25T09:04:16.873Z,21.00
2019-06-25T09:06:49.545Z,20.20
2019-06-25T09:09:22.636Z,20.20
2019-06-25T09:11:54.225Z,20.60
2019-06-25T09:14:27.579Z,20.13
2019-06-25T09:17:01.147Z,20.83
2019-06-25T09:19:46.251Z,21.97
2019-06-25T09:22:06.746Z,19.50
2019-06-25T09:24:38.377Z,17.77
2019-06-25T09:27:11.615Z,20.53
2019-06-25T09:29:45.370Z,20.00
2019-06-25T09:32:17.846Z,19.00
2019-06-25T09:34:50.710Z,21.53
2019-06-25T09:37:22.601Z,22.23
2019-06-25T09:39:51.612Z,21.87
2019-06-25T09:42:20.795Z,20.43
2019-06-25T09:44:49.758Z,19.07
2019-06-25T09:47:21.838Z,20.00
2019-06-25T09:49:54.452Z,19.97
2019-06-25T09:52:26.516Z,19.40
2019-06-25T09:54:59.260Z,18.23
2019-06-25T09:57:32.354Z,17.03
2019-06-25T10:00:04.879Z,16.03
2019-06-25T10:02:37.048Z,17.30
2019-06-25T10:05:10.386Z,17.97
2019-06-25T10:07:41.923Z,18.70
2019-06-25T10:10:14.565Z,19.93
2019-06-25T10:12:46.337Z,18.50
2019-06-25T10:15:19.225Z,17.93
2019-06-25T10:17:51.750Z,17.27
2019-06-25T10:20:23.800Z,17.60
2019-06-25T10:22:56.376Z,17.80
2019-06-25T10:25:28.600Z,20.60
2019-06-25T10:28:00.780Z,17.67
2019-06-25T10:30:38.710Z,17.97
2019-06-25T10:33:10.790Z,18.23
2019-06-25T10:35:47.307Z,21.10
2019-06-25T10:38:15.923Z,18.40
2019-06-25T10:40:47.810Z,20.37
2019-06-25T10:43:20.309Z,17.57
2019-06-25T10:45:52.416Z,17.50
2019-06-25T10:48:26.758Z,19.47
2019-06-25T10:50:58.397Z,17.07
2019-06-25T10:53:31.665Z,17.30
2019-06-25T10:56:04.283Z,19.00
2019-06-25T10:58:36.656Z,21.63
2019-06-25T11:01:10.836Z,19.37
2019-06-25T11:03:43.658Z,16.10
2019-06-25T11:06:15.853Z,19.90
2019-06-25T11:08:48.183Z,18.47
2019-06-25T11:11:20.224Z,18.00
2019-06-25T11:14:07.318Z,15.80
2019-06-25T11:16:26.314Z,17.30
2019-06-25T11:18:58.942Z,16.97
2019-06-25T11:21:32.615Z,14.37
2019-06-25T11:24:04.664Z,15.43
2019-06-25T11:26:37.557Z,14.47
2019-06-25T11:29:09.823Z,16.57
2019-06-25T11:31:42.036Z,15.50
2019-06-25T11:34:14.075Z,16.50
2019-06-25T11:36:47.565Z,18.10
2019-06-25T11:39:20.630Z,15.03
2019-06-25T11:41:52.562Z,15.67
2019-06-25T11:44:25.518Z,16.63
2019-06-25T11:46:58.086Z,15.90
2019-06-25T11:49:29.882Z,15.37
2019-06-25T11:52:02.712Z,16.77
2019-06-25T11:54:35.442Z,13.23
2019-06-25T11:57:07.884Z,13.80
2019-06-25T11:59:40.748Z,12.67
2019-06-25T12:02:13.573Z,13.23
2019-06-25T12:04:46.763Z,13.00
2019-06-25T12:07:19.627Z,13.90
2019-06-25T12:09:52.603Z,14.70
2019-06-25T12:12:25.644Z,14.13
2019-06-25T12:14:58.287Z,13.70
2019-06-25T12:17:30.833Z,13.93
2019-06-25T12:20:03.386Z,13.63
2019-06-25T12:22:35.983Z,12.77
2019-06-25T12:25:08.562Z,13.40
2019-06-25T12:27:40.865Z,12.50
2019-06-25T12:30:13.956Z,12.10
2019-06-25T12:32:45.883Z,12.53
2019-06-25T12:35:18.963Z,12.87
2019-06-25T12:37:51.463Z,13.73
2019-06-25T12:40:23.353Z,13.57
2019-06-25T12:42:56.244Z,13.90
2019-06-25T12:45:32.897Z,13.47
2019-06-25T12:48:03.270Z,14.10
2019-06-25T12:50:36.082Z,13.40
2019-06-25T12:53:08.747Z,13.57
2019-06-25T12:55:41.359Z,12.70
2019-06-25T12:58:13.411Z,14.10
2019-06-25T13:00:45.911Z,12.37
2019-06-25T13:03:17.748Z,12.20
2019-06-25T13:05:50.321Z,13.87
2019-06-25T13:08:22.109Z,11.63
2019-06-25T13:10:53.656Z,12.20
2019-06-25T13:13:25.441Z,12.77
2019-06-25T13:15:57.347Z,12.47
2019-06-25T13:18:29.827Z,13.40
2019-06-25T13:21:02.152Z,12.83
2019-06-25T13:23:34.727Z,12.20
2019-06-25T13:26:06.872Z,13.60
2019-06-25T13:28:39.986Z,13.13
2019-06-25T13:31:11.975Z,12.13
2019-06-25T13:33:43.742Z,12.40
2019-06-25T13:36:17.726Z,12.60
2019-06-25T13:38:50.202Z,12.30
2019-06-25T13:41:22.774Z,12.97
2019-06-25T13:43:54.882Z,12.60
2019-06-25T13:46:27.432Z,14.23
2019-06-25T13:49:00.597Z,14.70
2019-06-25T13:51:33.137Z,12.30
2019-06-25T13:54:04.925Z,11.53
2019-06-25T13:56:36.963Z,10.93
2019-06-25T13:59:09.034Z,12.67
2019-06-25T14:01:41.611Z,11.77
2019-06-25T14:04:13.669Z,11.83
2019-06-25T14:06:46.477Z,11.60
2019-06-25T14:09:19.070Z,12.27
2019-06-25T14:11:51.849Z,11.10
2019-06-25T14:14:24.758Z,11.33
2019-06-25T14:16:57.070Z,11.90
2019-06-25T14:19:28.652Z,11.43
2019-06-25T14:22:01.212Z,10.90
2019-06-25T14:24:34.148Z,11.13
2019-06-25T14:27:06.678Z,9.40
2019-06-25T14:29:40.269Z,8.53
2019-06-25T14:32:12.267Z,9.07
2019-06-25T14:34:44.933Z,9.80
2019-06-25T14:37:17.972Z,9.50
2019-06-25T14:39:51.547Z,10.17
2019-06-25T14:42:24.141Z,8.43
2019-06-25T14:44:55.962Z,11.07
2019-06-25T14:47:29.093Z,9.70
2019-06-25T14:50:01.130Z,9.03
2019-06-25T14:52:33.837Z,9.90
2019-06-25T14:55:05.999Z,10.13
2019-06-25T14:57:37.450Z,11.33
2019-06-25T15:00:10.121Z,13.70
2019-06-25T15:02:44.239Z,13.03
2019-06-25T15:05:16.540Z,12.63
2019-06-25T15:07:48.928Z,11.83
2019-06-25T15:10:22.411Z,12.57
2019-06-25T15:12:55.038Z,10.27
2019-06-25T15:15:32.695Z,9.70
2019-06-25T15:18:02.745Z,8.93
2019-06-25T15:20:35.155Z,7.43
2019-06-25T15:23:07.406Z,7.90
2019-06-25T15:25:39.236Z,8.77
2019-06-25T15:28:11.763Z,11.40
2019-06-25T15:30:43.874Z,9.33
2019-06-25T15:33:16.060Z,7.60
2019-06-25T15:35:48.245Z,8.53
2019-06-25T15:38:20.825Z,8.30
2019-06-25T15:40:52.972Z,8.30
2019-06-25T15:43:28.805Z,7.67
2019-06-25T15:45:59.866Z,7.63
2019-06-25T15:48:31.901Z,8.30
2019-06-25T15:51:03.465Z,8.67
2019-06-25T15:53:36.786Z,8.40
2019-06-25T15:56:09.533Z,8.80
2019-06-25T15:58:42.796Z,25.10
2019-06-25T16:01:15.823Z,8.77
2019-06-25T16:03:47.923Z,7.10
2019-06-25T16:06:20.386Z,5.53
2019-06-25T16:09:02.574Z,6.07
2019-06-25T16:11:26.615Z,5.83
2019-06-25T16:13:58.980Z,8.60
2019-06-25T16:16:31.261Z,5.80
2019-06-25T16:19:04.606Z,6.33
2019-06-25T16:21:36.430Z,5.70
2019-06-25T16:24:09.707Z,6.20
2019-06-25T16:26:42.612Z,5.30
2019-06-25T16:29:14.786Z,6.23
2019-06-25T16:31:46.918Z,5.80
2019-06-25T16:34:20.079Z,10.03
2019-06-25T16:36:52.144Z,7.00
2019-06-25T16:39:24.936Z,7.27
2019-06-25T16:41:57.014Z,7.30
2019-06-25T16:44:29.686Z,6.97
2019-06-25T16:47:02.434Z,7.23
2019-06-25T16:49:35.275Z,7.93
2019-06-25T16:52:08.245Z,7.13
2019-06-25T16:54:40.473Z,6.93
2019-06-25T16:57:12.779Z,6.80
2019-06-25T16:59:44.672Z,6.13
2019-06-25T17:02:24.314Z,9.83
2019-06-25T17:04:50.511Z,5.90
2019-06-25T17:07:22.502Z,5.87
2019-06-25T17:09:54.668Z,5.80
2019-06-25T17:12:27.697Z,6.50
2019-06-25T17:15:00.178Z,6.40
2019-06-25T17:17:32.199Z,5.90
2019-06-25T17:20:04.424Z,6.07
2019-06-25T17:22:36.788Z,5.60
2019-06-25T17:25:09.558Z,6.73
2019-06-25T17:27:49.923Z,5.77
2019-06-25T17:30:16.270Z,6.50
2019-06-25T17:32:48.354Z,5.80
2019-06-25T17:35:20.892Z,7.00
2019-06-25T17:37:53.776Z,6.43
2019-06-25T17:40:27.090Z,6.93
2019-06-25T17:42:59.654Z,6.40
2019-06-25T17:45:31.778Z,6.00
2019-06-25T17:48:04.314Z,6.10
2019-06-25T17:50:36.443Z,5.33
2019-06-25T17:53:09.035Z,6.17
2019-06-25T17:55:44.851Z,6.03
2019-06-25T17:58:17.190Z,6.17
2019-06-25T18:00:50.694Z,5.50
2019-06-25T18:03:23.019Z,7.83
2019-06-25T18:05:55.479Z,6.60
2019-06-25T18:08:28.249Z,6.20
2019-06-25T18:11:01.719Z,6.17
2019-06-25T18:13:35.339Z,7.60
2019-06-25T18:16:08.549Z,6.57
2019-06-25T18:18:41.104Z,6.33
2019-06-25T18:21:13.459Z,7.67
2019-06-25T18:23:45.828Z,9.67
2019-06-25T18:26:18.068Z,10.53
2019-06-25T18:28:53.643Z,9.30
2019-06-25T18:31:24.265Z,11.00
2019-06-25T18:33:56.623Z,13.40
2019-06-25T18:36:28.998Z,12.47
2019-06-25T18:39:01.509Z,11.30
2019-06-25T18:41:34.039Z,12.10
2019-06-25T18:44:06.437Z,12.93
2019-06-25T18:46:38.942Z,10.53
2019-06-25T18:49:11.538Z,13.40
2019-06-25T18:51:43.862Z,11.37
2019-06-25T18:54:15.418Z,9.80
2019-06-25T18:56:47.914Z,10.33
2019-06-25T18:59:20.308Z,9.47
2019-06-25T19:01:53.144Z,9.00
2019-06-25T19:04:25.794Z,10.53
2019-06-25T19:06:58.493Z,10.20
2019-06-25T19:09:31.376Z,8.33
2019-06-25T19:12:03.962Z,10.77
2019-06-25T19:14:36.618Z,7.77
2019-06-25T19:17:09.377Z,9.27
2019-06-25T19:19:42.490Z,9.10
2019-06-25T19:22:14.816Z,9.17
2019-06-25T19:24:46.950Z,9.10
2019-06-25T19:27:19.153Z,10.37
2019-06-25T19:29:51.916Z,8.90
2019-06-25T19:32:24.101Z,9.57
2019-06-25T19:34:57.595Z,8.13
2019-06-25T19:37:29.511Z,10.07
2019-06-25T19:40:02.375Z,12.47
2019-06-25T19:42:34.881Z,9.10
2019-06-25T19:45:07.331Z,10.10
2019-06-25T19:47:49.950Z,9.83
2019-06-25T19:50:17.234Z,10.47
2019-06-25T19:52:47.806Z,10.23
2019-06-25T19:55:20.211Z,9.47
2019-06-25T19:57:52.953Z,8.70
2019-06-25T20:00:26.257Z,9.80
2019-06-25T20:02:58.500Z,9.87
2019-06-25T20:05:30.921Z,10.70
2019-06-25T20:08:04.269Z,9.37
2019-06-25T20:10:36.289Z,13.63
2019-06-25T20:13:09.951Z,12.40
2019-06-25T20:15:43.701Z,10.20
2019-06-25T20:18:17.300Z,10.80
2019-06-25T20:20:50.765Z,11.47
2019-06-25T20:23:24.266Z,12.73
2019-06-25T20:25:56.639Z,15.40
2019-06-25T20:28:28.461Z,9.00
2019-06-25T20:31:01.934Z,11.67
2019-06-25T20:33:35.913Z,11.30
2019-06-25T20:36:09.392Z,10.83
2019-06-25T20:38:41.825Z,10.40
2019-06-25T20:41:27.525Z,10.83
2019-06-25T20:43:47.483Z,11.07
2019-06-25T20:46:20.711Z,10.10
2019-06-25T20:48:53.706Z,10.10
2019-06-25T20:51:26.252Z,10.77
2019-06-25T20:53:59.270Z,10.30
2019-06-25T20:56:31.926Z,9.93
2019-06-25T20:59:05.040Z,10.17
2019-06-25T21:01:38.087Z,9.00
2019-06-25T21:04:09.520Z,9.93
2019-06-25T21:06:42.639Z,11.87
2019-06-25T21:09:15.853Z,9.60
2019-06-25T21:11:49.245Z,19.70
2019-06-25T21:14:22.000Z,11.17
2019-06-25T21:16:53.895Z,12.97
2019-06-25T21:19:39.064Z,11.70
2019-06-25T21:22:00.232Z,11.07
2019-06-25T21:24:32.350Z,12.10
2019-06-25T21:27:05.005Z,11.27
2019-06-25T21:29:37.739Z,10.33
2019-06-25T21:32:09.944Z,14.63
2019-06-25T21:34:42.441Z,13.00
2019-06-25T21:37:14.665Z,10.33
2019-06-25T21:39:47.171Z,11.67
2019-06-25T21:42:20.458Z,9.97
2019-06-25T21:44:52.700Z,10.90
2019-06-25T21:47:25.025Z,11.00
2019-06-25T21:49:57.576Z,11.00
2019-06-25T21:52:31.204Z,10.70
2019-06-25T21:55:04.011Z,10.60
2019-06-25T21:57:37.095Z,10.90
2019-06-25T22:00:11.126Z,10.77
2019-06-25T22:02:44.726Z,10.13
2019-06-25T22:05:16.791Z,9.73
2019-06-25T22:07:48.704Z,10.03
2019-06-25T22:10:23.017Z,10.47
2019-06-25T22:12:54.623Z,11.47
2019-06-25T22:15:26.951Z,11.83
2019-06-25T22:17:59.483Z,10.60
2019-06-25T22:20:32.086Z,11.27
2019-06-25T22:23:04.230Z,10.77
2019-06-25T22:25:37.555Z,11.63
2019-06-25T22:28:09.207Z,10.90
2019-06-25T22:30:42.187Z,11.40
2019-06-25T22:33:14.706Z,10.40
2019-06-25T22:35:46.591Z,10.23
2019-06-25T22:38:19.121Z,11.40
2019-06-25T22:40:51.656Z,10.73
2019-06-25T22:43:24.107Z,9.83
2019-06-25T22:45:57.350Z,10.90
2019-06-25T22:48:30.157Z,10.13
2019-06-25T22:51:03.276Z,10.87
2019-06-25T22:53:35.910Z,10.20
2019-06-25T22:56:07.899Z,9.37
2019-06-25T22:58:41.006Z,9.20
2019-06-25T23:01:13.203Z,8.93
2019-06-25T23:03:45.556Z,9.17
2019-06-25T23:06:17.736Z,9.07
2019-06-25T23:08:50.483Z,7.80
2019-06-25T23:11:23.012Z,8.20
2019-06-25T23:13:55.711Z,8.00
2019-06-25T23:16:27.582Z,10.90
2019-06-25T23:19:00.085Z,9.43
2019-06-25T23:21:33.429Z,9.93
2019-06-25T23:24:05.351Z,8.83
2019-06-25T23:26:37.672Z,11.53
2019-06-25T23:29:11.095Z,8.67
2019-06-25T23:31:43.456Z,12.90
2019-06-25T23:34:15.912Z,11.63
2019-06-25T23:36:47.586Z,19.10
2019-06-25T23:39:19.276Z,12.60
2019-06-25T23:41:52.116Z,13.37
2019-06-25T23:44:25.074Z,11.00
2019-06-25T23:46:56.926Z,10.23
2019-06-25T23:49:29.336Z,11.27
2019-06-25T23:52:01.565Z,11.30
2019-06-25T23:54:34.177Z,13.77
2019-06-25T23:57:07.111Z,10.20
2019-06-25T23:59:40.611Z,9.93
